sensor_id;sensor_type;location;lat;lon;timestamp;P1;durP1;ratioP1;P2;durP2;ratioP2
20894;SDS011;10607;42.066;24.742;2024-02-15T00:01:15;6.33;;;4.43;;
20894;SDS011;10607;42.066;24.742;2024-02-15T00:03:40;7.47;;;4.40;;
20894;SDS011;10607;42.066;24.742;2024-02-15T00:06:06;6.80;;;4.60;;
20894;SDS011;10607;42.066;24.742;2024-02-15T00:08:31;8.20;;;4.43;;
20894;SDS011;10607;42.066;24.742;2024-02-15T00:10:57;6.83;;;4.93;;
20894;SDS011;10607;42.066;24.742;2024-02-15T00:13:23;7.37;;;4.83;;
20894;SDS011;10607;42.066;24.742;2024-02-15T00:15:48;5.73;;;4.20;;
20894;SDS011;10607;42.066;24.742;2024-02-15T00:18:14;6.90;;;4.70;;
20894;SDS011;10607;42.066;24.742;2024-02-15T00:20:39;5.07;;;4.10;;
20894;SDS011;10607;42.066;24.742;2024-02-15T00:23:04;7.40;;;4.77;;
20894;SDS011;10607;42.066;24.742;2024-02-15T00:25:31;6.07;;;4.07;;
20894;SDS011;10607;42.066;24.742;2024-02-15T00:27:56;5.97;;;4.47;;
20894;SDS011;10607;42.066;24.742;2024-02-15T00:30:21;10.83;;;4.50;;
20894;SDS011;10607;42.066;24.742;2024-02-15T00:32:47;5.50;;;4.40;;
20894;SDS011;10607;42.066;24.742;2024-02-15T00:35:12;7.53;;;3.87;;
20894;SDS011;10607;42.066;24.742;2024-02-15T00:37:38;5.20;;;4.43;;
20894;SDS011;10607;42.066;24.742;2024-02-15T00:40:03;7.00;;;4.60;;
20894;SDS011;10607;42.066;24.742;2024-02-15T00:42:29;5.63;;;4.83;;
20894;SDS011;10607;42.066;24.742;2024-02-15T00:44:56;6.33;;;4.30;;
20894;SDS011;10607;42.066;24.742;2024-02-15T00:47:21;5.03;;;3.83;;
20894;SDS011;10607;42.066;24.742;2024-02-15T00:49:47;5.30;;;4.33;;
20894;SDS011;10607;42.066;24.742;2024-02-15T00:52:12;6.53;;;4.03;;
20894;SDS011;10607;42.066;24.742;2024-02-15T00:54:37;5.37;;;3.77;;
20894;SDS011;10607;42.066;24.742;2024-02-15T00:57:02;6.50;;;4.33;;
20894;SDS011;10607;42.066;24.742;2024-02-15T00:59:28;11.70;;;4.87;;
20894;SDS011;10607;42.066;24.742;2024-02-15T01:01:53;6.40;;;4.40;;
20894;SDS011;10607;42.066;24.742;2024-02-15T01:04:19;7.00;;;4.70;;
20894;SDS011;10607;42.066;24.742;2024-02-15T01:06:44;4.97;;;4.07;;
20894;SDS011;10607;42.066;24.742;2024-02-15T01:09:10;8.63;;;5.00;;
20894;SDS011;10607;42.066;24.742;2024-02-15T01:11:35;5.10;;;4.37;;
20894;SDS011;10607;42.066;24.742;2024-02-15T01:14:01;5.73;;;4.37;;
20894;SDS011;10607;42.066;24.742;2024-02-15T01:16:27;6.33;;;3.63;;
20894;SDS011;10607;42.066;24.742;2024-02-15T01:18:52;5.47;;;4.03;;
20894;SDS011;10607;42.066;24.742;2024-02-15T01:21:17;6.73;;;4.90;;
20894;SDS011;10607;42.066;24.742;2024-02-15T01:23:44;6.00;;;3.80;;
20894;SDS011;10607;42.066;24.742;2024-02-15T01:26:09;5.70;;;4.37;;
20894;SDS011;10607;42.066;24.742;2024-02-15T01:28:37;6.13;;;4.60;;
20894;SDS011;10607;42.066;24.742;2024-02-15T01:31:02;6.73;;;4.30;;
20894;SDS011;10607;42.066;24.742;2024-02-15T01:33:27;5.33;;;4.03;;
20894;SDS011;10607;42.066;24.742;2024-02-15T01:35:53;6.83;;;4.43;;
20894;SDS011;10607;42.066;24.742;2024-02-15T01:38:18;5.97;;;3.87;;
20894;SDS011;10607;42.066;24.742;2024-02-15T01:40:43;6.47;;;4.33;;
20894;SDS011;10607;42.066;24.742;2024-02-15T01:43:09;6.80;;;4.10;;
20894;SDS011;10607;42.066;24.742;2024-02-15T01:45:34;6.20;;;4.07;;
20894;SDS011;10607;42.066;24.742;2024-02-15T01:47:59;8.77;;;4.17;;
20894;SDS011;10607;42.066;24.742;2024-02-15T01:50:27;7.27;;;4.00;;
20894;SDS011;10607;42.066;24.742;2024-02-15T01:52:53;9.13;;;4.30;;
20894;SDS011;10607;42.066;24.742;2024-02-15T01:55:19;7.17;;;4.93;;
20894;SDS011;10607;42.066;24.742;2024-02-15T01:57:45;5.07;;;3.80;;
20894;SDS011;10607;42.066;24.742;2024-02-15T02:00:14;7.47;;;4.43;;
20894;SDS011;10607;42.066;24.742;2024-02-15T02:02:41;11.03;;;4.77;;
20894;SDS011;10607;42.066;24.742;2024-02-15T02:05:07;4.97;;;3.97;;
20894;SDS011;10607;42.066;24.742;2024-02-15T02:07:32;5.80;;;3.90;;
20894;SDS011;10607;42.066;24.742;2024-02-15T02:09:58;6.03;;;4.40;;
20894;SDS011;10607;42.066;24.742;2024-02-15T02:12:23;5.27;;;3.67;;
20894;SDS011;10607;42.066;24.742;2024-02-15T02:14:55;6.93;;;4.63;;
20894;SDS011;10607;42.066;24.742;2024-02-15T02:17:20;6.70;;;4.67;;
20894;SDS011;10607;42.066;24.742;2024-02-15T02:19:46;6.70;;;4.50;;
20894;SDS011;10607;42.066;24.742;2024-02-15T02:22:11;6.17;;;3.70;;
20894;SDS011;10607;42.066;24.742;2024-02-15T02:27:20;5.57;;;4.10;;
20894;SDS011;10607;42.066;24.742;2024-02-15T02:29:46;9.70;;;4.10;;
20894;SDS011;10607;42.066;24.742;2024-02-15T02:32:11;5.33;;;4.10;;
20894;SDS011;10607;42.066;24.742;2024-02-15T02:34:37;6.90;;;3.87;;
20894;SDS011;10607;42.066;24.742;2024-02-15T02:37:02;10.73;;;4.90;;
20894;SDS011;10607;42.066;24.742;2024-02-15T02:39:30;4.53;;;3.63;;
20894;SDS011;10607;42.066;24.742;2024-02-15T02:41:56;5.57;;;3.70;;
20894;SDS011;10607;42.066;24.742;2024-02-15T02:44:22;5.57;;;3.97;;
20894;SDS011;10607;42.066;24.742;2024-02-15T02:46:47;7.03;;;3.97;;
20894;SDS011;10607;42.066;24.742;2024-02-15T02:49:12;6.63;;;4.47;;
20894;SDS011;10607;42.066;24.742;2024-02-15T02:51:37;6.60;;;4.63;;
20894;SDS011;10607;42.066;24.742;2024-02-15T02:54:03;6.87;;;4.97;;
20894;SDS011;10607;42.066;24.742;2024-02-15T02:56:31;6.80;;;4.70;;
20894;SDS011;10607;42.066;24.742;2024-02-15T02:58:56;8.60;;;5.80;;
20894;SDS011;10607;42.066;24.742;2024-02-15T03:01:22;7.90;;;4.77;;
20894;SDS011;10607;42.066;24.742;2024-02-15T03:03:49;6.77;;;4.17;;
20894;SDS011;10607;42.066;24.742;2024-02-15T03:06:15;9.40;;;4.57;;
20894;SDS011;10607;42.066;24.742;2024-02-15T03:08:40;6.13;;;4.27;;
20894;SDS011;10607;42.066;24.742;2024-02-15T03:11:05;5.43;;;4.17;;
20894;SDS011;10607;42.066;24.742;2024-02-15T03:13:30;9.63;;;4.80;;
20894;SDS011;10607;42.066;24.742;2024-02-15T03:15:56;6.73;;;4.30;;
20894;SDS011;10607;42.066;24.742;2024-02-15T03:18:21;6.10;;;4.50;;
20894;SDS011;10607;42.066;24.742;2024-02-15T03:20:48;6.03;;;4.40;;
20894;SDS011;10607;42.066;24.742;2024-02-15T03:23:14;6.00;;;3.87;;
20894;SDS011;10607;42.066;24.742;2024-02-15T03:25:39;5.27;;;4.77;;
20894;SDS011;10607;42.066;24.742;2024-02-15T03:28:04;6.80;;;4.67;;
20894;SDS011;10607;42.066;24.742;2024-02-15T03:30:30;6.80;;;4.37;;
20894;SDS011;10607;42.066;24.742;2024-02-15T03:32:56;4.63;;;4.10;;
20894;SDS011;10607;42.066;24.742;2024-02-15T03:35:24;7.23;;;4.73;;
20894;SDS011;10607;42.066;24.742;2024-02-15T03:37:50;5.30;;;4.63;;
20894;SDS011;10607;42.066;24.742;2024-02-15T03:40:19;6.57;;;4.67;;
20894;SDS011;10607;42.066;24.742;2024-02-15T03:42:45;7.50;;;4.83;;
20894;SDS011;10607;42.066;24.742;2024-02-15T03:45:10;8.17;;;4.30;;
20894;SDS011;10607;42.066;24.742;2024-02-15T03:47:36;6.60;;;4.60;;
20894;SDS011;10607;42.066;24.742;2024-02-15T03:50:02;10.30;;;4.70;;
20894;SDS011;10607;42.066;24.742;2024-02-15T03:52:27;6.70;;;4.30;;
20894;SDS011;10607;42.066;24.742;2024-02-15T03:54:55;7.00;;;4.37;;
20894;SDS011;10607;42.066;24.742;2024-02-15T03:57:20;6.90;;;4.67;;
20894;SDS011;10607;42.066;24.742;2024-02-15T03:59:46;5.03;;;4.03;;
20894;SDS011;10607;42.066;24.742;2024-02-15T04:02:15;5.97;;;4.40;;
20894;SDS011;10607;42.066;24.742;2024-02-15T04:04:40;7.77;;;4.50;;
20894;SDS011;10607;42.066;24.742;2024-02-15T04:07:11;6.53;;;4.40;;
20894;SDS011;10607;42.066;24.742;2024-02-15T04:09:37;6.90;;;4.40;;
20894;SDS011;10607;42.066;24.742;2024-02-15T04:12:02;5.23;;;4.30;;
20894;SDS011;10607;42.066;24.742;2024-02-15T04:14:27;7.97;;;4.50;;
20894;SDS011;10607;42.066;24.742;2024-02-15T04:16:53;7.87;;;5.03;;
20894;SDS011;10607;42.066;24.742;2024-02-15T04:19:18;9.73;;;5.00;;
20894;SDS011;10607;42.066;24.742;2024-02-15T04:21:47;7.77;;;4.47;;
20894;SDS011;10607;42.066;24.742;2024-02-15T04:24:12;8.57;;;4.93;;
20894;SDS011;10607;42.066;24.742;2024-02-15T04:26:37;6.30;;;4.70;;
20894;SDS011;10607;42.066;24.742;2024-02-15T04:29:03;6.07;;;4.40;;
20894;SDS011;10607;42.066;24.742;2024-02-15T04:31:28;6.07;;;4.93;;
20894;SDS011;10607;42.066;24.742;2024-02-15T04:33:54;10.23;;;5.03;;
20894;SDS011;10607;42.066;24.742;2024-02-15T04:36:19;7.67;;;4.97;;
20894;SDS011;10607;42.066;24.742;2024-02-15T04:38:49;7.50;;;5.30;;
20894;SDS011;10607;42.066;24.742;2024-02-15T04:41:15;5.80;;;4.33;;
20894;SDS011;10607;42.066;24.742;2024-02-15T04:43:44;6.07;;;5.00;;
20894;SDS011;10607;42.066;24.742;2024-02-15T04:46:11;5.33;;;4.10;;
20894;SDS011;10607;42.066;24.742;2024-02-15T04:48:36;6.80;;;4.77;;
20894;SDS011;10607;42.066;24.742;2024-02-15T04:51:02;6.53;;;4.93;;
20894;SDS011;10607;42.066;24.742;2024-02-15T04:53:27;8.93;;;4.40;;
20894;SDS011;10607;42.066;24.742;2024-02-15T04:55:54;7.13;;;4.97;;
20894;SDS011;10607;42.066;24.742;2024-02-15T04:58:20;6.10;;;4.23;;
20894;SDS011;10607;42.066;24.742;2024-02-15T05:00:45;8.53;;;4.90;;
20894;SDS011;10607;42.066;24.742;2024-02-15T05:03:10;7.87;;;4.67;;
20894;SDS011;10607;42.066;24.742;2024-02-15T05:05:35;6.83;;;4.73;;
20894;SDS011;10607;42.066;24.742;2024-02-15T05:08:01;7.13;;;5.30;;
20894;SDS011;10607;42.066;24.742;2024-02-15T05:10:26;6.20;;;4.70;;
20894;SDS011;10607;42.066;24.742;2024-02-15T05:12:52;6.67;;;4.73;;
20894;SDS011;10607;42.066;24.742;2024-02-15T05:15:18;9.47;;;4.87;;
20894;SDS011;10607;42.066;24.742;2024-02-15T05:17:48;7.00;;;4.47;;
20894;SDS011;10607;42.066;24.742;2024-02-15T05:20:13;8.80;;;4.90;;
20894;SDS011;10607;42.066;24.742;2024-02-15T05:22:39;6.10;;;4.80;;
20894;SDS011;10607;42.066;24.742;2024-02-15T05:25:08;5.80;;;4.67;;
20894;SDS011;10607;42.066;24.742;2024-02-15T05:27:34;7.73;;;4.33;;
20894;SDS011;10607;42.066;24.742;2024-02-15T05:29:59;6.97;;;4.90;;
20894;SDS011;10607;42.066;24.742;2024-02-15T05:32:24;7.77;;;5.17;;
20894;SDS011;10607;42.066;24.742;2024-02-15T05:34:51;5.90;;;4.53;;
20894;SDS011;10607;42.066;24.742;2024-02-15T05:37:16;7.97;;;4.83;;
20894;SDS011;10607;42.066;24.742;2024-02-15T05:39:41;6.90;;;4.83;;
20894;SDS011;10607;42.066;24.742;2024-02-15T05:42:06;6.40;;;4.50;;
20894;SDS011;10607;42.066;24.742;2024-02-15T05:44:32;11.50;;;4.70;;
20894;SDS011;10607;42.066;24.742;2024-02-15T05:46:59;7.20;;;4.33;;
20894;SDS011;10607;42.066;24.742;2024-02-15T05:49:25;6.30;;;4.80;;
20894;SDS011;10607;42.066;24.742;2024-02-15T05:51:50;5.57;;;4.50;;
20894;SDS011;10607;42.066;24.742;2024-02-15T05:54:16;7.20;;;4.63;;
20894;SDS011;10607;42.066;24.742;2024-02-15T05:56:42;5.77;;;4.30;;
20894;SDS011;10607;42.066;24.742;2024-02-15T05:59:08;8.37;;;5.50;;
20894;SDS011;10607;42.066;24.742;2024-02-15T06:01:35;11.60;;;5.70;;
20894;SDS011;10607;42.066;24.742;2024-02-15T06:04:00;6.67;;;4.57;;
20894;SDS011;10607;42.066;24.742;2024-02-15T06:06:26;7.10;;;4.73;;
20894;SDS011;10607;42.066;24.742;2024-02-15T06:08:51;7.77;;;5.10;;
20894;SDS011;10607;42.066;24.742;2024-02-15T06:11:20;6.77;;;5.17;;
20894;SDS011;10607;42.066;24.742;2024-02-15T06:13:45;14.47;;;5.57;;
20894;SDS011;10607;42.066;24.742;2024-02-15T06:16:11;8.27;;;4.57;;
20894;SDS011;10607;42.066;24.742;2024-02-15T06:18:36;9.40;;;5.23;;
20894;SDS011;10607;42.066;24.742;2024-02-15T06:21:02;6.77;;;4.70;;
20894;SDS011;10607;42.066;24.742;2024-02-15T06:23:28;7.77;;;4.90;;
20894;SDS011;10607;42.066;24.742;2024-02-15T06:25:54;7.20;;;4.50;;
20894;SDS011;10607;42.066;24.742;2024-02-15T06:28:20;9.90;;;4.77;;
20894;SDS011;10607;42.066;24.742;2024-02-15T06:31:05;6.97;;;5.17;;
20894;SDS011;10607;42.066;24.742;2024-02-15T06:33:49;7.13;;;4.80;;
20894;SDS011;10607;42.066;24.742;2024-02-15T06:36:33;12.33;;;5.20;;
20894;SDS011;10607;42.066;24.742;2024-02-15T06:39:34;6.83;;;4.80;;
20894;SDS011;10607;42.066;24.742;2024-02-15T06:42:09;8.93;;;5.50;;
20894;SDS011;10607;42.066;24.742;2024-02-15T06:44:40;6.53;;;4.37;;
20894;SDS011;10607;42.066;24.742;2024-02-15T06:47:06;8.97;;;5.17;;
20894;SDS011;10607;42.066;24.742;2024-02-15T06:49:32;6.13;;;4.50;;
20894;SDS011;10607;42.066;24.742;2024-02-15T06:51:58;5.83;;;4.90;;
20894;SDS011;10607;42.066;24.742;2024-02-15T06:54:24;9.60;;;5.30;;
20894;SDS011;10607;42.066;24.742;2024-02-15T06:56:49;7.90;;;5.47;;
20894;SDS011;10607;42.066;24.742;2024-02-15T06:59:16;8.23;;;5.23;;
20894;SDS011;10607;42.066;24.742;2024-02-15T07:01:43;7.33;;;4.77;;
20894;SDS011;10607;42.066;24.742;2024-02-15T07:04:09;8.17;;;5.20;;
20894;SDS011;10607;42.066;24.742;2024-02-15T07:06:37;9.87;;;5.27;;
20894;SDS011;10607;42.066;24.742;2024-02-15T07:09:03;7.73;;;4.93;;
20894;SDS011;10607;42.066;24.742;2024-02-15T07:11:28;10.87;;;5.30;;
20894;SDS011;10607;42.066;24.742;2024-02-15T07:13:55;7.77;;;4.53;;
20894;SDS011;10607;42.066;24.742;2024-02-15T07:16:20;9.37;;;5.27;;
20894;SDS011;10607;42.066;24.742;2024-02-15T07:18:46;8.70;;;5.30;;
20894;SDS011;10607;42.066;24.742;2024-02-15T07:21:11;7.17;;;5.20;;
20894;SDS011;10607;42.066;24.742;2024-02-15T07:23:39;7.20;;;4.93;;
20894;SDS011;10607;42.066;24.742;2024-02-15T07:26:04;9.70;;;4.87;;
20894;SDS011;10607;42.066;24.742;2024-02-15T07:28:29;14.13;;;5.97;;
20894;SDS011;10607;42.066;24.742;2024-02-15T07:30:58;13.03;;;6.00;;
20894;SDS011;10607;42.066;24.742;2024-02-15T07:33:23;7.93;;;5.27;;
20894;SDS011;10607;42.066;24.742;2024-02-15T07:35:48;7.97;;;5.53;;
20894;SDS011;10607;42.066;24.742;2024-02-15T07:38:17;7.37;;;4.97;;
20894;SDS011;10607;42.066;24.742;2024-02-15T07:40:42;9.70;;;5.37;;
20894;SDS011;10607;42.066;24.742;2024-02-15T07:43:08;7.90;;;5.27;;
20894;SDS011;10607;42.066;24.742;2024-02-15T07:45:33;7.93;;;5.40;;
20894;SDS011;10607;42.066;24.742;2024-02-15T07:48:01;9.20;;;5.70;;
20894;SDS011;10607;42.066;24.742;2024-02-15T07:50:29;7.20;;;4.97;;
20894;SDS011;10607;42.066;24.742;2024-02-15T07:52:54;7.17;;;5.80;;
20894;SDS011;10607;42.066;24.742;2024-02-15T07:55:19;8.87;;;5.17;;
20894;SDS011;10607;42.066;24.742;2024-02-15T07:57:45;9.07;;;5.47;;
20894;SDS011;10607;42.066;24.742;2024-02-15T08:00:13;9.20;;;6.00;;
20894;SDS011;10607;42.066;24.742;2024-02-15T08:02:41;8.00;;;4.93;;
20894;SDS011;10607;42.066;24.742;2024-02-15T08:05:07;6.00;;;4.70;;
20894;SDS011;10607;42.066;24.742;2024-02-15T08:07:35;10.57;;;5.30;;
20894;SDS011;10607;42.066;24.742;2024-02-15T08:10:01;7.80;;;5.35;;
20894;SDS011;10607;42.066;24.742;2024-02-15T08:12:27;7.53;;;4.77;;
20894;SDS011;10607;42.066;24.742;2024-02-15T08:14:52;6.97;;;5.03;;
20894;SDS011;10607;42.066;24.742;2024-02-15T08:17:17;9.35;;;4.93;;
20894;SDS011;10607;42.066;24.742;2024-02-15T08:19:43;7.68;;;5.00;;
20894;SDS011;10607;42.066;24.742;2024-02-15T08:22:08;9.15;;;5.60;;
20894;SDS011;10607;42.066;24.742;2024-02-15T08:24:34;7.32;;;4.85;;
20894;SDS011;10607;42.066;24.742;2024-02-15T08:27:00;8.10;;;5.38;;
20894;SDS011;10607;42.066;24.742;2024-02-15T08:29:26;6.75;;;5.07;;
20894;SDS011;10607;42.066;24.742;2024-02-15T08:31:51;16.10;;;6.05;;
20894;SDS011;10607;42.066;24.742;2024-02-15T08:34:19;10.65;;;4.75;;
20894;SDS011;10607;42.066;24.742;2024-02-15T08:36:53;9.27;;;5.20;;
20894;SDS011;10607;42.066;24.742;2024-02-15T08:39:19;12.45;;;5.80;;
20894;SDS011;10607;42.066;24.742;2024-02-15T08:41:44;6.10;;;4.95;;
20894;SDS011;10607;42.066;24.742;2024-02-15T08:44:10;9.07;;;4.80;;
20894;SDS011;10607;42.066;24.742;2024-02-15T08:46:40;8.73;;;5.28;;
20894;SDS011;10607;42.066;24.742;2024-02-15T08:49:06;6.80;;;5.10;;
20894;SDS011;10607;42.066;24.742;2024-02-15T08:51:32;10.65;;;4.70;;
20894;SDS011;10607;42.066;24.742;2024-02-15T08:53:58;6.63;;;4.32;;
20894;SDS011;10607;42.066;24.742;2024-02-15T08:56:25;10.95;;;6.00;;
20894;SDS011;10607;42.066;24.742;2024-02-15T08:58:50;10.95;;;5.28;;
20894;SDS011;10607;42.066;24.742;2024-02-15T09:01:16;11.10;;;5.18;;
20894;SDS011;10607;42.066;24.742;2024-02-15T09:03:41;6.72;;;5.03;;
20894;SDS011;10607;42.066;24.742;2024-02-15T09:06:06;7.70;;;5.30;;
20894;SDS011;10607;42.066;24.742;2024-02-15T09:08:32;10.88;;;4.57;;
20894;SDS011;10607;42.066;24.742;2024-02-15T09:10:58;6.68;;;4.80;;
20894;SDS011;10607;42.066;24.742;2024-02-15T09:13:26;7.63;;;4.93;;
20894;SDS011;10607;42.066;24.742;2024-02-15T09:15:54;6.50;;;4.00;;
20894;SDS011;10607;42.066;24.742;2024-02-15T09:18:20;7.40;;;4.95;;
20894;SDS011;10607;42.066;24.742;2024-02-15T09:20:48;10.73;;;4.35;;
20894;SDS011;10607;42.066;24.742;2024-02-15T09:23:21;7.95;;;4.03;;
20894;SDS011;10607;42.066;24.742;2024-02-15T09:25:49;5.65;;;4.47;;
20894;SDS011;10607;42.066;24.742;2024-02-15T09:28:19;8.10;;;4.90;;
20894;SDS011;10607;42.066;24.742;2024-02-15T09:30:48;7.63;;;4.28;;
20894;SDS011;10607;42.066;24.742;2024-02-15T09:33:16;6.70;;;4.18;;
20894;SDS011;10607;42.066;24.742;2024-02-15T09:35:42;6.53;;;4.35;;
20894;SDS011;10607;42.066;24.742;2024-02-15T09:38:07;16.23;;;4.70;;
20894;SDS011;10607;42.066;24.742;2024-02-15T09:40:33;16.00;;;4.47;;
20894;SDS011;10607;42.066;24.742;2024-02-15T09:43:00;6.72;;;4.43;;
20894;SDS011;10607;42.066;24.742;2024-02-15T09:45:26;14.93;;;4.85;;
20894;SDS011;10607;42.066;24.742;2024-02-15T09:47:52;12.90;;;4.35;;
20894;SDS011;10607;42.066;24.742;2024-02-15T09:50:18;6.32;;;4.00;;
20894;SDS011;10607;42.066;24.742;2024-02-15T09:52:44;6.18;;;4.22;;
20894;SDS011;10607;42.066;24.742;2024-02-15T09:55:11;9.80;;;3.88;;
20894;SDS011;10607;42.066;24.742;2024-02-15T09:57:47;7.15;;;4.50;;
20894;SDS011;10607;42.066;24.742;2024-02-15T10:00:12;7.38;;;3.75;;
20894;SDS011;10607;42.066;24.742;2024-02-15T10:02:42;13.30;;;4.30;;
20894;SDS011;10607;42.066;24.742;2024-02-15T10:05:11;6.28;;;3.85;;
20894;SDS011;10607;42.066;24.742;2024-02-15T10:07:40;12.30;;;4.38;;
20894;SDS011;10607;42.066;24.742;2024-02-15T10:10:16;9.38;;;5.28;;
20894;SDS011;10607;42.066;24.742;2024-02-15T10:12:42;5.40;;;3.75;;
20894;SDS011;10607;42.066;24.742;2024-02-15T10:15:26;7.95;;;4.72;;
20894;SDS011;10607;42.066;24.742;2024-02-15T10:17:55;4.68;;;3.75;;
20894;SDS011;10607;42.066;24.742;2024-02-15T10:20:20;6.90;;;4.30;;
20894;SDS011;10607;42.066;24.742;2024-02-15T10:22:46;12.68;;;4.05;;
20894;SDS011;10607;42.066;24.742;2024-02-15T10:25:11;8.02;;;4.68;;
20894;SDS011;10607;42.066;24.742;2024-02-15T10:27:38;6.43;;;4.15;;
20894;SDS011;10607;42.066;24.742;2024-02-15T10:30:16;6.25;;;3.50;;
20894;SDS011;10607;42.066;24.742;2024-02-15T10:32:42;6.60;;;3.25;;
20894;SDS011;10607;42.066;24.742;2024-02-15T10:35:07;4.78;;;3.50;;
20894;SDS011;10607;42.066;24.742;2024-02-15T10:37:33;15.32;;;4.50;;
20894;SDS011;10607;42.066;24.742;2024-02-15T10:40:04;9.32;;;3.90;;
20894;SDS011;10607;42.066;24.742;2024-02-15T10:42:32;9.95;;;4.63;;
20894;SDS011;10607;42.066;24.742;2024-02-15T10:44:59;5.03;;;3.40;;
20894;SDS011;10607;42.066;24.742;2024-02-15T10:47:26;7.30;;;3.30;;
20894;SDS011;10607;42.066;24.742;2024-02-15T10:49:52;5.10;;;3.80;;
20894;SDS011;10607;42.066;24.742;2024-02-15T10:52:17;6.18;;;3.65;;
20894;SDS011;10607;42.066;24.742;2024-02-15T10:54:56;9.02;;;3.38;;
20894;SDS011;10607;42.066;24.742;2024-02-15T10:57:28;17.48;;;4.10;;
20894;SDS011;10607;42.066;24.742;2024-02-15T10:59:56;5.53;;;3.40;;
20894;SDS011;10607;42.066;24.742;2024-02-15T11:02:29;5.70;;;3.28;;
20894;SDS011;10607;42.066;24.742;2024-02-15T11:04:55;15.13;;;4.00;;
20894;SDS011;10607;42.066;24.742;2024-02-15T11:07:25;8.55;;;3.47;;
20894;SDS011;10607;42.066;24.742;2024-02-15T11:09:53;4.70;;;3.20;;
20894;SDS011;10607;42.066;24.742;2024-02-15T11:12:21;3.95;;;2.92;;
20894;SDS011;10607;42.066;24.742;2024-02-15T11:14:49;6.65;;;3.10;;
20894;SDS011;10607;42.066;24.742;2024-02-15T11:20:00;10.00;;;3.42;;
20894;SDS011;10607;42.066;24.742;2024-02-15T11:22:25;15.60;;;3.80;;
20894;SDS011;10607;42.066;24.742;2024-02-15T11:24:51;8.23;;;3.30;;
20894;SDS011;10607;42.066;24.742;2024-02-15T11:27:23;18.73;;;3.78;;
20894;SDS011;10607;42.066;24.742;2024-02-15T11:29:53;5.93;;;3.33;;
20894;SDS011;10607;42.066;24.742;2024-02-15T11:32:44;5.78;;;3.45;;
20894;SDS011;10607;42.066;24.742;2024-02-15T11:40:13;35.10;;;5.32;;
20894;SDS011;10607;42.066;24.742;2024-02-15T11:42:38;22.38;;;4.40;;
20894;SDS011;10607;42.066;24.742;2024-02-15T11:45:05;6.70;;;3.17;;
20894;SDS011;10607;42.066;24.742;2024-02-15T11:47:37;8.85;;;3.50;;
20894;SDS011;10607;42.066;24.742;2024-02-15T11:50:02;5.55;;;2.70;;
20894;SDS011;10607;42.066;24.742;2024-02-15T11:52:30;9.63;;;3.45;;
20894;SDS011;10607;42.066;24.742;2024-02-15T11:55:03;8.57;;;3.83;;
20894;SDS011;10607;42.066;24.742;2024-02-15T11:57:29;11.75;;;3.47;;
20894;SDS011;10607;42.066;24.742;2024-02-15T12:00:02;4.32;;;3.25;;
20894;SDS011;10607;42.066;24.742;2024-02-15T12:02:46;4.97;;;3.10;;
20894;SDS011;10607;42.066;24.742;2024-02-15T12:05:30;20.70;;;3.95;;
20894;SDS011;10607;42.066;24.742;2024-02-15T12:08:14;8.90;;;3.40;;
20894;SDS011;10607;42.066;24.742;2024-02-15T12:11:01;7.82;;;3.00;;
20894;SDS011;10607;42.066;24.742;2024-02-15T12:13:49;11.75;;;3.38;;
20894;SDS011;10607;42.066;24.742;2024-02-15T12:16:33;4.57;;;3.38;;
20894;SDS011;10607;42.066;24.742;2024-02-15T12:19:17;8.95;;;3.22;;
20894;SDS011;10607;42.066;24.742;2024-02-15T12:21:42;4.68;;;3.20;;
20894;SDS011;10607;42.066;24.742;2024-02-15T12:24:08;3.92;;;2.85;;
20894;SDS011;10607;42.066;24.742;2024-02-15T12:26:33;8.98;;;2.97;;
20894;SDS011;10607;42.066;24.742;2024-02-15T12:29:00;7.95;;;3.20;;
20894;SDS011;10607;42.066;24.742;2024-02-15T12:31:26;12.25;;;3.17;;
20894;SDS011;10607;42.066;24.742;2024-02-15T12:34:01;23.45;;;3.95;;
20894;SDS011;10607;42.066;24.742;2024-02-15T12:36:26;8.88;;;2.80;;
20894;SDS011;10607;42.066;24.742;2024-02-15T12:39:00;10.77;;;3.33;;
20894;SDS011;10607;42.066;24.742;2024-02-15T12:41:25;6.25;;;3.03;;
20894;SDS011;10607;42.066;24.742;2024-02-15T12:43:53;6.07;;;2.50;;
20894;SDS011;10607;42.066;24.742;2024-02-15T12:46:22;11.38;;;3.35;;
20894;SDS011;10607;42.066;24.742;2024-02-15T12:48:47;10.75;;;3.33;;
20894;SDS011;10607;42.066;24.742;2024-02-15T12:51:13;15.10;;;3.40;;
20894;SDS011;10607;42.066;24.742;2024-02-15T12:53:38;7.80;;;3.08;;
20894;SDS011;10607;42.066;24.742;2024-02-15T12:56:03;6.70;;;2.92;;
20894;SDS011;10607;42.066;24.742;2024-02-15T12:58:31;4.03;;;2.80;;
20894;SDS011;10607;42.066;24.742;2024-02-15T13:00:56;25.38;;;4.22;;
20894;SDS011;10607;42.066;24.742;2024-02-15T13:03:23;26.23;;;5.15;;
20894;SDS011;10607;42.066;24.742;2024-02-15T13:05:49;9.73;;;3.70;;
20894;SDS011;10607;42.066;24.742;2024-02-15T13:08:14;7.03;;;2.67;;
20894;SDS011;10607;42.066;24.742;2024-02-15T13:10:40;12.15;;;3.25;;
20894;SDS011;10607;42.066;24.742;2024-02-15T13:13:05;6.15;;;3.38;;
20894;SDS011;10607;42.066;24.742;2024-02-15T13:15:31;8.60;;;3.20;;
20894;SDS011;10607;42.066;24.742;2024-02-15T13:17:59;13.43;;;3.78;;
20894;SDS011;10607;42.066;24.742;2024-02-15T13:20:25;7.95;;;3.42;;
20894;SDS011;10607;42.066;24.742;2024-02-15T13:23:00;13.57;;;4.20;;
20894;SDS011;10607;42.066;24.742;2024-02-15T13:25:30;21.90;;;3.97;;
20894;SDS011;10607;42.066;24.742;2024-02-15T13:27:56;25.38;;;3.92;;
20894;SDS011;10607;42.066;24.742;2024-02-15T13:30:22;8.02;;;3.20;;
20894;SDS011;10607;42.066;24.742;2024-02-15T13:32:51;3.45;;;2.90;;
20894;SDS011;10607;42.066;24.742;2024-02-15T13:35:17;9.30;;;3.70;;
20894;SDS011;10607;42.066;24.742;2024-02-15T13:37:51;13.13;;;2.67;;
20894;SDS011;10607;42.066;24.742;2024-02-15T13:40:19;4.95;;;3.50;;
20894;SDS011;10607;42.066;24.742;2024-02-15T13:42:48;3.83;;;2.80;;
20894;SDS011;10607;42.066;24.742;2024-02-15T13:45:38;6.95;;;3.45;;
20894;SDS011;10607;42.066;24.742;2024-02-15T13:48:02;13.25;;;4.03;;
20894;SDS011;10607;42.066;24.742;2024-02-15T13:50:28;6.30;;;2.92;;
20894;SDS011;10607;42.066;24.742;2024-02-15T13:52:54;9.07;;;3.25;;
20894;SDS011;10607;42.066;24.742;2024-02-15T13:55:19;10.27;;;3.38;;
20894;SDS011;10607;42.066;24.742;2024-02-15T13:57:47;4.68;;;3.28;;
20894;SDS011;10607;42.066;24.742;2024-02-15T14:00:13;8.15;;;3.40;;
20894;SDS011;10607;42.066;24.742;2024-02-15T14:02:46;7.13;;;3.60;;
20894;SDS011;10607;42.066;24.742;2024-02-15T14:05:12;6.25;;;3.88;;
20894;SDS011;10607;42.066;24.742;2024-02-15T14:07:38;4.68;;;3.30;;
20894;SDS011;10607;42.066;24.742;2024-02-15T14:10:06;10.88;;;3.70;;
20894;SDS011;10607;42.066;24.742;2024-02-15T14:12:32;4.25;;;2.97;;
20894;SDS011;10607;42.066;24.742;2024-02-15T14:14:57;9.75;;;3.22;;
20894;SDS011;10607;42.066;24.742;2024-02-15T14:17:23;10.25;;;3.10;;
20894;SDS011;10607;42.066;24.742;2024-02-15T14:19:48;9.20;;;2.97;;
20894;SDS011;10607;42.066;24.742;2024-02-15T14:22:13;4.65;;;3.40;;
20894;SDS011;10607;42.066;24.742;2024-02-15T14:24:41;28.35;;;5.72;;
20894;SDS011;10607;42.066;24.742;2024-02-15T14:27:06;4.10;;;2.70;;
20894;SDS011;10607;42.066;24.742;2024-02-15T14:29:32;7.00;;;3.72;;
20894;SDS011;10607;42.066;24.742;2024-02-15T14:32:00;4.50;;;2.92;;
20894;SDS011;10607;42.066;24.742;2024-02-15T14:34:44;8.90;;;3.90;;
20894;SDS011;10607;42.066;24.742;2024-02-15T14:37:09;3.35;;;2.80;;
20894;SDS011;10607;42.066;24.742;2024-02-15T14:39:35;10.07;;;3.33;;
20894;SDS011;10607;42.066;24.742;2024-02-15T14:42:00;6.20;;;4.00;;
20894;SDS011;10607;42.066;24.742;2024-02-15T14:44:25;12.13;;;4.10;;